sensor_id;sensor_type;location;lat;lon;timestamp;P1;durP1;ratioP1;P2;durP2;ratioP2
51866;SDS011;52862;52.504;13.480;2023-05-07T00:02:00;34.83;;;14.23;;
51866;SDS011;52862;52.504;13.480;2023-05-07T00:04:26;31.37;;;12.70;;
51866;SDS011;52862;52.504;13.480;2023-05-07T00:06:54;28.17;;;13.87;;
51866;SDS011;52862;52.504;13.480;2023-05-07T00:09:21;23.63;;;13.30;;
51866;SDS011;52862;52.504;13.480;2023-05-07T00:11:47;30.37;;;13.77;;
51866;SDS011;52862;52.504;13.480;2023-05-07T00:14:14;24.33;;;13.87;;
51866;SDS011;52862;52.504;13.480;2023-05-07T00:16:41;33.07;;;14.17;;
51866;SDS011;52862;52.504;13.480;2023-05-07T00:19:08;33.63;;;13.77;;
51866;SDS011;52862;52.504;13.480;2023-05-07T00:21:35;21.60;;;12.73;;
51866;SDS011;52862;52.504;13.480;2023-05-07T00:24:01;20.37;;;11.93;;
51866;SDS011;52862;52.504;13.480;2023-05-07T00:26:28;17.73;;;11.73;;
51866;SDS011;52862;52.504;13.480;2023-05-07T00:28:55;22.27;;;11.80;;
51866;SDS011;52862;52.504;13.480;2023-05-07T00:31:22;26.80;;;12.43;;
51866;SDS011;52862;52.504;13.480;2023-05-07T00:33:49;18.87;;;11.03;;
51866;SDS011;52862;52.504;13.480;2023-05-07T00:36:16;21.17;;;11.30;;
51866;SDS011;52862;52.504;13.480;2023-05-07T00:38:43;19.93;;;12.00;;
51866;SDS011;52862;52.504;13.480;2023-05-07T00:41:09;25.37;;;12.27;;
51866;SDS011;52862;52.504;13.480;2023-05-07T00:43:36;20.67;;;12.03;;
51866;SDS011;52862;52.504;13.480;2023-05-07T00:46:03;25.63;;;13.53;;
51866;SDS011;52862;52.504;13.480;2023-05-07T00:48:29;28.23;;;12.73;;
51866;SDS011;52862;52.504;13.480;2023-05-07T00:50:57;27.63;;;13.30;;
51866;SDS011;52862;52.504;13.480;2023-05-07T00:53:24;22.50;;;12.27;;
51866;SDS011;52862;52.504;13.480;2023-05-07T00:55:52;22.80;;;12.83;;
51866;SDS011;52862;52.504;13.480;2023-05-07T00:58:19;32.13;;;13.20;;
51866;SDS011;52862;52.504;13.480;2023-05-07T01:00:47;27.97;;;12.60;;
51866;SDS011;52862;52.504;13.480;2023-05-07T01:03:13;34.20;;;13.10;;
51866;SDS011;52862;52.504;13.480;2023-05-07T01:05:40;22.70;;;13.27;;
51866;SDS011;52862;52.504;13.480;2023-05-07T01:08:10;22.10;;;12.63;;
51866;SDS011;52862;52.504;13.480;2023-05-07T01:10:38;23.17;;;12.57;;
51866;SDS011;52862;52.504;13.480;2023-05-07T01:13:08;24.03;;;12.33;;
51866;SDS011;52862;52.504;13.480;2023-05-07T01:15:36;28.00;;;13.23;;
51866;SDS011;52862;52.504;13.480;2023-05-07T01:18:03;23.67;;;12.50;;
51866;SDS011;52862;52.504;13.480;2023-05-07T01:20:30;21.30;;;11.90;;
51866;SDS011;52862;52.504;13.480;2023-05-07T01:22:58;21.57;;;12.93;;
51866;SDS011;52862;52.504;13.480;2023-05-07T01:25:26;28.37;;;12.77;;
51866;SDS011;52862;52.504;13.480;2023-05-07T01:27:54;25.47;;;11.77;;
51866;SDS011;52862;52.504;13.480;2023-05-07T01:30:20;22.30;;;12.40;;
51866;SDS011;52862;52.504;13.480;2023-05-07T01:32:49;27.00;;;12.77;;
51866;SDS011;52862;52.504;13.480;2023-05-07T01:35:19;20.33;;;12.40;;
51866;SDS011;52862;52.504;13.480;2023-05-07T01:37:48;23.20;;;11.70;;
51866;SDS011;52862;52.504;13.480;2023-05-07T01:40:16;20.30;;;12.00;;
51866;SDS011;52862;52.504;13.480;2023-05-07T01:42:43;22.60;;;11.33;;
51866;SDS011;52862;52.504;13.480;2023-05-07T01:45:10;22.83;;;11.97;;
51866;SDS011;52862;52.504;13.480;2023-05-07T01:47:37;18.83;;;10.83;;
51866;SDS011;52862;52.504;13.480;2023-05-07T01:50:05;21.47;;;11.97;;
51866;SDS011;52862;52.504;13.480;2023-05-07T01:52:34;18.13;;;11.23;;
51866;SDS011;52862;52.504;13.480;2023-05-07T01:55:02;19.73;;;10.83;;
51866;SDS011;52862;52.504;13.480;2023-05-07T01:57:29;20.80;;;11.43;;
51866;SDS011;52862;52.504;13.480;2023-05-07T01:59:56;26.27;;;12.33;;
51866;SDS011;52862;52.504;13.480;2023-05-07T02:02:23;20.87;;;11.37;;
51866;SDS011;52862;52.504;13.480;2023-05-07T02:04:49;18.10;;;12.03;;
51866;SDS011;52862;52.504;13.480;2023-05-07T02:07:17;26.73;;;12.53;;
51866;SDS011;52862;52.504;13.480;2023-05-07T02:09:43;26.17;;;11.90;;
51866;SDS011;52862;52.504;13.480;2023-05-07T02:12:10;21.87;;;12.73;;
51866;SDS011;52862;52.504;13.480;2023-05-07T02:14:37;26.93;;;12.20;;
51866;SDS011;52862;52.504;13.480;2023-05-07T02:17:04;24.47;;;11.60;;
51866;SDS011;52862;52.504;13.480;2023-05-07T02:19:30;32.30;;;13.10;;
51866;SDS011;52862;52.504;13.480;2023-05-07T02:21:57;21.20;;;12.30;;
51866;SDS011;52862;52.504;13.480;2023-05-07T02:24:24;21.37;;;12.60;;
51866;SDS011;52862;52.504;13.480;2023-05-07T02:26:50;23.93;;;12.27;;
51866;SDS011;52862;52.504;13.480;2023-05-07T02:29:17;24.40;;;12.20;;
51866;SDS011;52862;52.504;13.480;2023-05-07T02:31:44;33.70;;;12.10;;
51866;SDS011;52862;52.504;13.480;2023-05-07T02:34:11;27.43;;;14.20;;
51866;SDS011;52862;52.504;13.480;2023-05-07T02:36:38;21.97;;;12.10;;
51866;SDS011;52862;52.504;13.480;2023-05-07T02:39:04;23.67;;;11.80;;
51866;SDS011;52862;52.504;13.480;2023-05-07T02:41:31;20.27;;;12.63;;
51866;SDS011;52862;52.504;13.480;2023-05-07T02:43:58;25.27;;;12.70;;
51866;SDS011;52862;52.504;13.480;2023-05-07T02:46:24;24.70;;;12.60;;
51866;SDS011;52862;52.504;13.480;2023-05-07T02:48:52;24.83;;;12.67;;
51866;SDS011;52862;52.504;13.480;2023-05-07T02:51:19;22.63;;;11.70;;
51866;SDS011;52862;52.504;13.480;2023-05-07T02:53:49;22.87;;;11.70;;
51866;SDS011;52862;52.504;13.480;2023-05-07T02:56:15;26.13;;;11.20;;
51866;SDS011;52862;52.504;13.480;2023-05-07T02:58:42;19.43;;;10.90;;
51866;SDS011;52862;52.504;13.480;2023-05-07T03:01:09;19.27;;;11.20;;
51866;SDS011;52862;52.504;13.480;2023-05-07T03:03:36;19.20;;;11.30;;
51866;SDS011;52862;52.504;13.480;2023-05-07T03:06:04;22.83;;;10.80;;
51866;SDS011;52862;52.504;13.480;2023-05-07T03:08:30;26.97;;;11.83;;
51866;SDS011;52862;52.504;13.480;2023-05-07T03:10:57;26.03;;;11.20;;
51866;SDS011;52862;52.504;13.480;2023-05-07T03:13:24;26.40;;;11.27;;
51866;SDS011;52862;52.504;13.480;2023-05-07T03:15:51;23.77;;;11.70;;
51866;SDS011;52862;52.504;13.480;2023-05-07T03:18:17;20.63;;;10.20;;
51866;SDS011;52862;52.504;13.480;2023-05-07T03:20:44;20.90;;;10.97;;
51866;SDS011;52862;52.504;13.480;2023-05-07T03:23:12;21.43;;;11.97;;
51866;SDS011;52862;52.504;13.480;2023-05-07T03:25:39;20.70;;;11.13;;
51866;SDS011;52862;52.504;13.480;2023-05-07T03:28:05;18.03;;;11.53;;
51866;SDS011;52862;52.504;13.480;2023-05-07T03:30:32;28.97;;;11.73;;
51866;SDS011;52862;52.504;13.480;2023-05-07T03:32:59;22.93;;;11.90;;
51866;SDS011;52862;52.504;13.480;2023-05-07T03:35:26;19.90;;;12.43;;
51866;SDS011;52862;52.504;13.480;2023-05-07T03:37:52;20.83;;;11.33;;
51866;SDS011;52862;52.504;13.480;2023-05-07T03:40:20;23.47;;;12.27;;
51866;SDS011;52862;52.504;13.480;2023-05-07T03:42:46;22.70;;;11.37;;
51866;SDS011;52862;52.504;13.480;2023-05-07T03:45:13;21.83;;;11.70;;
51866;SDS011;52862;52.504;13.480;2023-05-07T03:47:40;23.47;;;11.53;;
51866;SDS011;52862;52.504;13.480;2023-05-07T03:50:07;19.47;;;10.80;;
51866;SDS011;52862;52.504;13.480;2023-05-07T03:52:35;23.67;;;11.17;;
51866;SDS011;52862;52.504;13.480;2023-05-07T03:55:01;25.13;;;10.80;;
51866;SDS011;52862;52.504;13.480;2023-05-07T03:57:29;21.87;;;10.50;;
51866;SDS011;52862;52.504;13.480;2023-05-07T03:59:55;22.13;;;10.83;;
51866;SDS011;52862;52.504;13.480;2023-05-07T04:02:22;19.40;;;10.33;;
51866;SDS011;52862;52.504;13.480;2023-05-07T04:04:49;17.23;;;11.07;;
51866;SDS011;52862;52.504;13.480;2023-05-07T04:07:15;21.83;;;11.57;;
51866;SDS011;52862;52.504;13.480;2023-05-07T04:09:42;17.90;;;10.43;;
51866;SDS011;52862;52.504;13.480;2023-05-07T04:12:09;19.57;;;9.57;;
51866;SDS011;52862;52.504;13.480;2023-05-07T04:14:36;20.00;;;10.60;;
51866;SDS011;52862;52.504;13.480;2023-05-07T04:17:03;22.20;;;10.53;;
51866;SDS011;52862;52.504;13.480;2023-05-07T04:19:29;20.87;;;10.07;;
51866;SDS011;52862;52.504;13.480;2023-05-07T04:21:56;16.03;;;10.10;;
51866;SDS011;52862;52.504;13.480;2023-05-07T04:24:23;17.97;;;9.53;;
51866;SDS011;52862;52.504;13.480;2023-05-07T04:26:49;15.67;;;9.43;;
51866;SDS011;52862;52.504;13.480;2023-05-07T04:29:16;16.33;;;9.53;;
51866;SDS011;52862;52.504;13.480;2023-05-07T04:31:44;17.43;;;9.47;;
51866;SDS011;52862;52.504;13.480;2023-05-07T04:34:11;20.60;;;10.13;;
51866;SDS011;52862;52.504;13.480;2023-05-07T04:36:38;16.57;;;9.07;;
51866;SDS011;52862;52.504;13.480;2023-05-07T04:39:07;16.40;;;9.67;;
51866;SDS011;52862;52.504;13.480;2023-05-07T04:41:35;12.73;;;8.77;;
51866;SDS011;52862;52.504;13.480;2023-05-07T04:44:02;18.10;;;9.43;;
51866;SDS011;52862;52.504;13.480;2023-05-07T04:46:29;18.60;;;8.97;;
51866;SDS011;52862;52.504;13.480;2023-05-07T04:48:57;15.10;;;8.70;;
51866;SDS011;52862;52.504;13.480;2023-05-07T04:51:23;16.03;;;9.20;;
51866;SDS011;52862;52.504;13.480;2023-05-07T04:53:50;12.50;;;7.97;;
51866;SDS011;52862;52.504;13.480;2023-05-07T04:56:17;15.80;;;8.30;;
51866;SDS011;52862;52.504;13.480;2023-05-07T04:58:44;16.10;;;7.50;;
51866;SDS011;52862;52.504;13.480;2023-05-07T05:01:10;17.10;;;8.07;;
51866;SDS011;52862;52.504;13.480;2023-05-07T05:03:37;13.90;;;7.90;;
51866;SDS011;52862;52.504;13.480;2023-05-07T05:06:05;12.10;;;7.20;;
51866;SDS011;52862;52.504;13.480;2023-05-07T05:08:32;14.70;;;7.37;;
51866;SDS011;52862;52.504;13.480;2023-05-07T05:11:00;14.10;;;7.40;;
51866;SDS011;52862;52.504;13.480;2023-05-07T05:13:27;19.43;;;7.57;;
51866;SDS011;52862;52.504;13.480;2023-05-07T05:15:53;13.53;;;7.47;;
51866;SDS011;52862;52.504;13.480;2023-05-07T05:18:20;14.13;;;7.13;;
51866;SDS011;52862;52.504;13.480;2023-05-07T05:20:47;16.87;;;8.00;;
51866;SDS011;52862;52.504;13.480;2023-05-07T05:23:14;17.20;;;8.10;;
51866;SDS011;52862;52.504;13.480;2023-05-07T05:25:41;13.27;;;7.77;;
51866;SDS011;52862;52.504;13.480;2023-05-07T05:28:07;15.53;;;7.67;;
51866;SDS011;52862;52.504;13.480;2023-05-07T05:30:34;13.73;;;8.30;;
51866;SDS011;52862;52.504;13.480;2023-05-07T05:33:01;15.17;;;8.63;;
51866;SDS011;52862;52.504;13.480;2023-05-07T05:35:29;19.83;;;8.33;;
51866;SDS011;52862;52.504;13.480;2023-05-07T05:37:55;24.17;;;8.23;;
51866;SDS011;52862;52.504;13.480;2023-05-07T05:40:22;18.90;;;8.30;;
51866;SDS011;52862;52.504;13.480;2023-05-07T05:42:49;14.77;;;7.90;;
51866;SDS011;52862;52.504;13.480;2023-05-07T05:45:16;15.93;;;8.33;;
51866;SDS011;52862;52.504;13.480;2023-05-07T05:47:43;16.90;;;9.20;;
51866;SDS011;52862;52.504;13.480;2023-05-07T05:50:10;26.43;;;8.53;;
51866;SDS011;52862;52.504;13.480;2023-05-07T05:52:37;16.83;;;8.50;;
51866;SDS011;52862;52.504;13.480;2023-05-07T05:55:04;16.30;;;7.90;;
51866;SDS011;52862;52.504;13.480;2023-05-07T05:57:32;14.97;;;8.00;;
51866;SDS011;52862;52.504;13.480;2023-05-07T05:59:59;15.77;;;8.27;;
51866;SDS011;52862;52.504;13.480;2023-05-07T06:02:26;14.50;;;7.83;;
51866;SDS011;52862;52.504;13.480;2023-05-07T06:04:53;13.13;;;7.37;;
51866;SDS011;52862;52.504;13.480;2023-05-07T06:07:20;13.30;;;8.10;;
51866;SDS011;52862;52.504;13.480;2023-05-07T06:09:46;28.00;;;8.10;;
51866;SDS011;52862;52.504;13.480;2023-05-07T06:12:13;21.70;;;9.00;;
51866;SDS011;52862;52.504;13.480;2023-05-07T06:14:40;20.20;;;9.37;;
51866;SDS011;52862;52.504;13.480;2023-05-07T06:17:08;18.53;;;7.83;;
51866;SDS011;52862;52.504;13.480;2023-05-07T06:19:35;20.30;;;8.30;;
51866;SDS011;52862;52.504;13.480;2023-05-07T06:22:02;14.20;;;7.43;;
51866;SDS011;52862;52.504;13.480;2023-05-07T06:24:28;14.47;;;7.67;;
51866;SDS011;52862;52.504;13.480;2023-05-07T06:26:55;12.23;;;7.30;;
51866;SDS011;52862;52.504;13.480;2023-05-07T06:29:23;16.43;;;7.50;;
51866;SDS011;52862;52.504;13.480;2023-05-07T06:31:52;11.40;;;6.83;;
51866;SDS011;52862;52.504;13.480;2023-05-07T06:34:18;15.87;;;7.70;;
51866;SDS011;52862;52.504;13.480;2023-05-07T06:36:45;14.67;;;7.87;;
51866;SDS011;52862;52.504;13.480;2023-05-07T06:39:11;12.17;;;6.97;;
51866;SDS011;52862;52.504;13.480;2023-05-07T06:41:38;18.60;;;7.90;;
51866;SDS011;52862;52.504;13.480;2023-05-07T06:44:05;12.83;;;6.97;;
51866;SDS011;52862;52.504;13.480;2023-05-07T06:46:31;17.57;;;7.67;;
51866;SDS011;52862;52.504;13.480;2023-05-07T06:48:59;12.13;;;7.07;;
51866;SDS011;52862;52.504;13.480;2023-05-07T06:51:25;12.17;;;6.97;;
51866;SDS011;52862;52.504;13.480;2023-05-07T06:53:52;15.10;;;7.30;;
51866;SDS011;52862;52.504;13.480;2023-05-07T06:56:19;11.50;;;6.33;;
51866;SDS011;52862;52.504;13.480;2023-05-07T06:58:46;13.17;;;5.37;;
51866;SDS011;52862;52.504;13.480;2023-05-07T07:01:13;10.23;;;5.70;;
51866;SDS011;52862;52.504;13.480;2023-05-07T07:03:40;12.20;;;5.40;;
51866;SDS011;52862;52.504;13.480;2023-05-07T07:06:08;9.30;;;6.13;;
51866;SDS011;52862;52.504;13.480;2023-05-07T07:08:34;20.23;;;6.20;;
51866;SDS011;52862;52.504;13.480;2023-05-07T07:11:01;11.43;;;6.10;;
51866;SDS011;52862;52.504;13.480;2023-05-07T07:13:27;8.83;;;5.23;;
51866;SDS011;52862;52.504;13.480;2023-05-07T07:15:54;10.20;;;5.57;;
51866;SDS011;52862;52.504;13.480;2023-05-07T07:18:21;15.63;;;6.07;;
51866;SDS011;52862;52.504;13.480;2023-05-07T07:20:48;12.87;;;5.63;;
51866;SDS011;52862;52.504;13.480;2023-05-07T07:23:15;13.37;;;5.10;;
51866;SDS011;52862;52.504;13.480;2023-05-07T07:25:42;16.33;;;5.07;;
51866;SDS011;52862;52.504;13.480;2023-05-07T07:28:09;11.63;;;5.50;;
51866;SDS011;52862;52.504;13.480;2023-05-07T07:30:36;9.60;;;5.37;;
51866;SDS011;52862;52.504;13.480;2023-05-07T07:33:03;9.77;;;4.97;;
51866;SDS011;52862;52.504;13.480;2023-05-07T07:35:30;15.80;;;4.63;;
51866;SDS011;52862;52.504;13.480;2023-05-07T07:37:57;10.53;;;4.80;;
51866;SDS011;52862;52.504;13.480;2023-05-07T07:40:24;9.67;;;5.40;;
51866;SDS011;52862;52.504;13.480;2023-05-07T07:42:51;18.87;;;5.17;;
51866;SDS011;52862;52.504;13.480;2023-05-07T07:45:19;16.30;;;4.73;;
51866;SDS011;52862;52.504;13.480;2023-05-07T07:47:46;11.43;;;4.90;;
51866;SDS011;52862;52.504;13.480;2023-05-07T07:50:13;12.17;;;4.87;;
51866;SDS011;52862;52.504;13.480;2023-05-07T07:52:57;7.80;;;4.33;;
51866;SDS011;52862;52.504;13.480;2023-05-07T07:55:23;8.30;;;4.03;;
51866;SDS011;52862;52.504;13.480;2023-05-07T07:57:51;7.40;;;4.07;;
51866;SDS011;52862;52.504;13.480;2023-05-07T08:00:18;8.73;;;3.80;;
51866;SDS011;52862;52.504;13.480;2023-05-07T08:02:45;9.83;;;4.47;;
51866;SDS011;52862;52.504;13.480;2023-05-07T08:05:12;9.47;;;4.40;;
51866;SDS011;52862;52.504;13.480;2023-05-07T08:07:39;11.83;;;4.27;;
51866;SDS011;52862;52.504;13.480;2023-05-07T08:10:06;6.90;;;3.90;;
51866;SDS011;52862;52.504;13.480;2023-05-07T08:12:33;8.43;;;4.27;;
51866;SDS011;52862;52.504;13.480;2023-05-07T08:15:00;4.10;;;3.23;;
51866;SDS011;52862;52.504;13.480;2023-05-07T08:17:27;6.93;;;3.33;;
51866;SDS011;52862;52.504;13.480;2023-05-07T08:19:54;5.57;;;3.10;;
51866;SDS011;52862;52.504;13.480;2023-05-07T08:22:20;12.67;;;3.23;;
51866;SDS011;52862;52.504;13.480;2023-05-07T08:24:48;9.47;;;3.97;;
51866;SDS011;52862;52.504;13.480;2023-05-07T08:27:15;11.57;;;4.03;;
51866;SDS011;52862;52.504;13.480;2023-05-07T08:29:42;7.60;;;3.53;;
51866;SDS011;52862;52.504;13.480;2023-05-07T08:32:12;7.00;;;3.80;;
51866;SDS011;52862;52.504;13.480;2023-05-07T08:34:39;14.57;;;6.43;;
51866;SDS011;52862;52.504;13.480;2023-05-07T08:37:06;15.20;;;4.20;;
51866;SDS011;52862;52.504;13.480;2023-05-07T08:39:33;8.27;;;3.80;;
51866;SDS011;52862;52.504;13.480;2023-05-07T08:42:00;6.40;;;3.80;;
51866;SDS011;52862;52.504;13.480;2023-05-07T08:44:31;5.77;;;3.23;;
51866;SDS011;52862;52.504;13.480;2023-05-07T08:47:01;7.40;;;3.40;;
51866;SDS011;52862;52.504;13.480;2023-05-07T08:49:28;7.43;;;3.00;;
51866;SDS011;52862;52.504;13.480;2023-05-07T08:51:55;17.93;;;3.40;;
51866;SDS011;52862;52.504;13.480;2023-05-07T08:54:22;10.70;;;3.70;;
51866;SDS011;52862;52.504;13.480;2023-05-07T08:56:49;15.30;;;4.23;;
51866;SDS011;52862;52.504;13.480;2023-05-07T08:59:15;8.00;;;3.57;;
51866;SDS011;52862;52.504;13.480;2023-05-07T09:01:42;12.03;;;3.37;;
51866;SDS011;52862;52.504;13.480;2023-05-07T09:04:10;12.53;;;3.77;;
51866;SDS011;52862;52.504;13.480;2023-05-07T09:06:38;8.80;;;3.73;;
51866;SDS011;52862;52.504;13.480;2023-05-07T09:09:07;6.53;;;3.20;;
51866;SDS011;52862;52.504;13.480;2023-05-07T09:11:34;8.40;;;3.80;;
51866;SDS011;52862;52.504;13.480;2023-05-07T09:14:01;6.80;;;3.33;;
51866;SDS011;52862;52.504;13.480;2023-05-07T09:16:28;6.53;;;3.40;;
51866;SDS011;52862;52.504;13.480;2023-05-07T09:18:56;10.40;;;3.53;;
51866;SDS011;52862;52.504;13.480;2023-05-07T09:21:25;8.40;;;3.37;;
51866;SDS011;52862;52.504;13.480;2023-05-07T09:23:52;15.60;;;3.40;;
51866;SDS011;52862;52.504;13.480;2023-05-07T09:26:21;7.73;;;3.40;;
51866;SDS011;52862;52.504;13.480;2023-05-07T09:28:48;9.10;;;3.63;;
51866;SDS011;52862;52.504;13.480;2023-05-07T09:31:14;6.30;;;3.37;;
51866;SDS011;52862;52.504;13.480;2023-05-07T09:33:45;11.93;;;3.40;;
51866;SDS011;52862;52.504;13.480;2023-05-07T09:36:12;5.83;;;2.70;;
51866;SDS011;52862;52.504;13.480;2023-05-07T09:38:40;6.30;;;3.50;;
51866;SDS011;52862;52.504;13.480;2023-05-07T09:41:08;9.40;;;3.13;;
51866;SDS011;52862;52.504;13.480;2023-05-07T09:43:36;12.03;;;2.90;;
51866;SDS011;52862;52.504;13.480;2023-05-07T09:46:06;8.00;;;2.90;;
51866;SDS011;52862;52.504;13.480;2023-05-07T09:48:37;8.17;;;2.50;;
51866;SDS011;52862;52.504;13.480;2023-05-07T09:51:08;5.33;;;2.90;;
51866;SDS011;52862;52.504;13.480;2023-05-07T09:53:42;6.03;;;2.83;;
51866;SDS011;52862;52.504;13.480;2023-05-07T09:56:12;6.27;;;2.60;;
51866;SDS011;52862;52.504;13.480;2023-05-07T09:58:40;10.90;;;2.53;;
51866;SDS011;52862;52.504;13.480;2023-05-07T10:01:10;3.50;;;2.00;;
51866;SDS011;52862;52.504;13.480;2023-05-07T10:03:38;6.63;;;2.20;;
51866;SDS011;52862;52.504;13.480;2023-05-07T10:06:08;6.07;;;2.30;;
51866;SDS011;52862;52.504;13.480;2023-05-07T10:08:35;3.27;;;2.10;;
51866;SDS011;52862;52.504;13.480;2023-05-07T10:11:04;3.97;;;2.10;;
51866;SDS011;52862;52.504;13.480;2023-05-07T10:13:31;3.13;;;2.00;;
51866;SDS011;52862;52.504;13.480;2023-05-07T10:15:58;3.63;;;2.07;;
51866;SDS011;52862;52.504;13.480;2023-05-07T10:18:26;3.23;;;2.10;;
51866;SDS011;52862;52.504;13.480;2023-05-07T10:20:55;3.87;;;1.60;;
51866;SDS011;52862;52.504;13.480;2023-05-07T10:23:30;8.83;;;2.10;;
51866;SDS011;52862;52.504;13.480;2023-05-07T10:25:59;4.57;;;2.20;;
51866;SDS011;52862;52.504;13.480;2023-05-07T10:28:28;3.20;;;2.00;;
51866;SDS011;52862;52.504;13.480;2023-05-07T10:30:58;4.40;;;2.10;;
51866;SDS011;52862;52.504;13.480;2023-05-07T10:33:33;3.93;;;2.07;;
51866;SDS011;52862;52.504;13.480;2023-05-07T10:36:02;5.30;;;2.10;;
51866;SDS011;52862;52.504;13.480;2023-05-07T10:38:30;4.60;;;2.30;;
51866;SDS011;52862;52.504;13.480;2023-05-07T10:40:57;4.27;;;1.83;;
51866;SDS011;52862;52.504;13.480;2023-05-07T10:43:24;3.87;;;2.20;;
51866;SDS011;52862;52.504;13.480;2023-05-07T10:46:09;2.80;;;1.77;;
51866;SDS011;52862;52.504;13.480;2023-05-07T10:48:49;3.97;;;2.27;;
51866;SDS011;52862;52.504;13.480;2023-05-07T10:51:33;9.53;;;2.33;;
51866;SDS011;52862;52.504;13.480;2023-05-07T10:54:19;6.90;;;1.97;;
51866;SDS011;52862;52.504;13.480;2023-05-07T10:56:47;4.73;;;1.80;;
51866;SDS011;52862;52.504;13.480;2023-05-07T10:59:35;5.90;;;1.97;;
51866;SDS011;52862;52.504;13.480;2023-05-07T11:02:08;4.47;;;2.07;;
51866;SDS011;52862;52.504;13.480;2023-05-07T11:04:36;5.30;;;2.07;;
51866;SDS011;52862;52.504;13.480;2023-05-07T11:09:59;4.40;;;1.90;;
51866;SDS011;52862;52.504;13.480;2023-05-07T11:12:51;6.00;;;2.03;;
51866;SDS011;52862;52.504;13.480;2023-05-07T11:15:35;3.13;;;2.20;;
51866;SDS011;52862;52.504;13.480;2023-05-07T11:18:04;7.20;;;2.20;;
51866;SDS011;52862;52.504;13.480;2023-05-07T11:20:47;12.50;;;2.27;;
51866;SDS011;52862;52.504;13.480;2023-05-07T11:26:25;5.43;;;2.50;;
51866;SDS011;52862;52.504;13.480;2023-05-07T11:28:53;6.23;;;2.77;;
51866;SDS011;52862;52.504;13.480;2023-05-07T11:31:20;11.10;;;2.20;;
51866;SDS011;52862;52.504;13.480;2023-05-07T11:33:49;3.33;;;1.90;;
51866;SDS011;52862;52.504;13.480;2023-05-07T11:36:16;3.23;;;2.00;;
51866;SDS011;52862;52.504;13.480;2023-05-07T11:38:43;5.30;;;2.47;;
51866;SDS011;52862;52.504;13.480;2023-05-07T11:41:10;9.57;;;2.08;;
51866;SDS011;52862;52.504;13.480;2023-05-07T11:43:37;8.27;;;3.07;;
51866;SDS011;52862;52.504;13.480;2023-05-07T11:46:19;5.80;;;2.43;;
51866;SDS011;52862;52.504;13.480;2023-05-07T11:48:46;4.30;;;2.47;;
51866;SDS011;52862;52.504;13.480;2023-05-07T11:51:14;5.20;;;2.57;;
51866;SDS011;52862;52.504;13.480;2023-05-07T11:53:45;4.83;;;2.10;;
51866;SDS011;52862;52.504;13.480;2023-05-07T11:56:12;5.17;;;1.90;;
51866;SDS011;52862;52.504;13.480;2023-05-07T11:58:40;5.03;;;2.10;;
51866;SDS011;52862;52.504;13.480;2023-05-07T12:01:08;5.70;;;2.23;;
51866;SDS011;52862;52.504;13.480;2023-05-07T12:03:35;10.63;;;2.40;;
51866;SDS011;52862;52.504;13.480;2023-05-07T12:06:05;5.97;;;2.03;;
51866;SDS011;52862;52.504;13.480;2023-05-07T12:08:33;8.43;;;2.47;;
51866;SDS011;52862;52.504;13.480;2023-05-07T12:11:02;5.05;;;2.20;;
51866;SDS011;52862;52.504;13.480;2023-05-07T12:13:29;8.90;;;2.03;;
51866;SDS011;52862;52.504;13.480;2023-05-07T12:15:56;3.80;;;2.15;;
51866;SDS011;52862;52.504;13.480;2023-05-07T12:18:23;5.37;;;1.60;;
51866;SDS011;52862;52.504;13.480;2023-05-07T12:20:51;3.97;;;2.00;;
51866;SDS011;52862;52.504;13.480;2023-05-07T12:23:18;7.40;;;2.10;;
51866;SDS011;52862;52.504;13.480;2023-05-07T12:25:46;2.57;;;1.73;;
51866;SDS011;52862;52.504;13.480;2023-05-07T12:28:15;4.50;;;1.80;;
51866;SDS011;52862;52.504;13.480;2023-05-07T12:30:42;4.37;;;1.73;;
51866;SDS011;52862;52.504;13.480;2023-05-07T12:33:10;2.67;;;1.67;;
51866;SDS011;52862;52.504;13.480;2023-05-07T12:35:38;7.67;;;2.10;;
51866;SDS011;52862;52.504;13.480;2023-05-07T12:38:07;6.30;;;1.70;;
51866;SDS011;52862;52.504;13.480;2023-05-07T12:40:35;3.30;;;1.98;;
51866;SDS011;52862;52.504;13.480;2023-05-07T12:43:03;2.27;;;1.97;;
51866;SDS011;52862;52.504;13.480;2023-05-07T12:45:30;5.57;;;1.60;;
51866;SDS011;52862;52.504;13.480;2023-05-07T12:47:57;3.10;;;1.50;;
51866;SDS011;52862;52.504;13.480;2023-05-07T12:50:30;9.03;;;1.97;;
51866;SDS011;52862;52.504;13.480;2023-05-07T12:52:58;6.07;;;2.00;;
51866;SDS011;52862;52.504;13.480;2023-05-07T12:55:25;3.77;;;1.77;;
51866;SDS011;52862;52.504;13.480;2023-05-07T12:57:54;3.70;;;1.90;;
51866;SDS011;52862;52.504;13.480;2023-05-07T13:00:36;3.70;;;1.60;;
51866;SDS011;52862;52.504;13.480;2023-05-07T13:03:03;4.00;;;1.70;;
51866;SDS011;52862;52.504;13.480;2023-05-07T13:05:30;8.67;;;1.53;;
51866;SDS011;52862;52.504;13.480;2023-05-07T13:07:57;7.30;;;1.90;;
51866;SDS011;52862;52.504;13.480;2023-05-07T13:10:24;8.10;;;1.70;;
51866;SDS011;52862;52.504;13.480;2023-05-07T13:12:51;2.97;;;1.77;;
51866;SDS011;52862;52.504;13.480;2023-05-07T13:15:19;3.57;;;1.70;;
51866;SDS011;52862;52.504;13.480;2023-05-07T13:17:46;5.47;;;1.70;;
51866;SDS011;52862;52.504;13.480;2023-05-07T13:20:13;3.27;;;1.70;;
51866;SDS011;52862;52.504;13.480;2023-05-07T13:22:40;5.63;;;1.87;;
51866;SDS011;52862;52.504;13.480;2023-05-07T13:25:08;3.17;;;1.53;;
51866;SDS011;52862;52.504;13.480;2023-05-07T13:27:35;4.67;;;1.90;;
51866;SDS011;52862;52.504;13.480;2023-05-07T13:30:02;3.77;;;1.97;;
51866;SDS011;52862;52.504;13.480;2023-05-07T13:32:31;3.10;;;1.90;;
51866;SDS011;52862;52.504;13.480;2023-05-07T13:34:58;14.27;;;1.70;;
51866;SDS011;52862;52.504;13.480;2023-05-07T13:37:25;3.25;;;1.73;;
51866;SDS011;52862;52.504;13.480;2023-05-07T13:39:52;3.43;;;1.77;;
51866;SDS011;52862;52.504;13.480;2023-05-07T13:42:19;10.10;;;1.95;;
51866;SDS011;52862;52.504;13.480;2023-05-07T13:44:46;8.15;;;1.83;;
51866;SDS011;52862;52.504;13.480;2023-05-07T13:47:13;11.07;;;1.70;;
51866;SDS011;52862;52.504;13.480;2023-05-07T13:49:39;2.95;;;1.70;;
51866;SDS011;52862;52.504;13.480;2023-05-07T13:52:07;3.47;;;1.77;;
51866;SDS011;52862;52.504;13.480;2023-05-07T13:54:34;2.28;;;1.50;;
51866;SDS011;52862;52.504;13.480;2023-05-07T13:57:00;12.52;;;1.80;;
51866;SDS011;52862;52.504;13.480;2023-05-07T13:59:27;5.63;;;1.70;;
51866;SDS011;52862;52.504;13.480;2023-05-07T14:01:54;3.35;;;1.90;;
51866;SDS011;52862;52.504;13.480;2023-05-07T14:04:21;4.60;;;1.75;;
51866;SDS011;52862;52.504;13.480;2023-05-07T14:06:47;5.50;;;2.45;;
51866;SDS011;52862;52.504;13.480;2023-05-07T14:09:15;4.30;;;2.10;;
51866;SDS011;52862;52.504;13.480;2023-05-07T14:11:41;4.85;;;1.73;;
51866;SDS011;52862;52.504;13.480;2023-05-07T14:14:08;5.80;;;2.15;;
51866;SDS011;52862;52.504;13.480;2023-05-07T14:16:36;4.72;;;1.90;;
51866;SDS011;52862;52.504;13.480;2023-05-07T14:19:03;6.47;;;1.65;;
51866;SDS011;52862;52.504;13.480;2023-05-07T14:21:30;3.25;;;1.90;;
51866;SDS011;52862;52.504;13.480;2023-05-07T14:23:57;3.40;;;2.30;;
51866;SDS011;52862;52.504;13.480;2023-05-07T14:26:24;3.00;;;1.60;;
51866;SDS011;52862;52.504;13.480;2023-05-07T14:28:52;5.65;;;2.00;;
51866;SDS011;52862;52.504;13.480;2023-05-07T14:31:20;4.85;;;1.95;;
51866;SDS011;52862;52.504;13.480;2023-05-07T14:33:47;10.48;;;1.20;;